Time;durP1;ratioP1;P1;durP2;ratioP2;P2;SDS_P1;SDS_P2;PMS_P1;PMS_P2;Temp;Humidity;BMP_temperature;BMP_pressure;BME280_temperature;BME280_humidity;BME280_pressure;Samples;Min_cycle;Max_cycle;Signal;HPM_P1;HPM_P2
2023/08/04 00:00:57;;;;;;;8.50;3.80;;;;;;;;;;107154;1255;62900;-80
2023/08/04 00:03:30;;;;;;;7.70;3.30;;;;;;;;;;107159;1254;61053;-80
2023/08/04 00:05:56;;;;;;;6.80;3.20;;;;;;;;;;107140;1250;62049;-80
2023/08/04 00:08:23;;;;;;;6.00;3.50;;;;;;;;;;107831;1249;60016;-80
2023/08/04 00:10:49;;;;;;;7.70;3.90;;;;;;;;;;108050;1249;25333;-79
2023/08/04 00:13:15;;;;;;;8.50;4.60;;;;;;;;;;108003;1250;23214;-80
2023/08/04 00:15:42;;;;;;;8.70;3.60;;;;;;;;;;108018;1249;24248;-79
2023/08/04 00:18:08;;;;;;;6.90;4.00;;;;;;;;;;108019;1249;22797;-80
2023/08/04 00:20:34;;;;;;;7.60;4.00;;;;;;;;;;108097;1255;25498;-80
2023/08/04 00:23:01;;;;;;;6.00;3.40;;;;;;;;;;107993;1249;23113;-80
2023/08/04 00:25:27;;;;;;;11.30;5.10;;;;;;;;;;108400;1249;22710;-80
2023/08/04 00:27:54;;;;;;;13.00;5.90;;;;;;;;;;108056;1249;22754;-80
2023/08/04 00:30:20;;;;;;;10.60;4.40;;;;;;;;;;107895;1255;59385;-81
2023/08/04 00:32:47;;;;;;;5.80;4.00;;;;;;;;;;107999;1253;22586;-80
2023/08/04 00:35:14;;;;;;;9.30;4.50;;;;;;;;;;107989;1251;22504;-80
2023/08/04 00:37:40;;;;;;;7.70;4.50;;;;;;;;;;107961;1251;22536;-80
2023/08/04 00:40:07;;;;;;;7.70;4.00;;;;;;;;;;107977;1253;24203;-80
2023/08/04 00:42:33;;;;;;;7.30;3.50;;;;;;;;;;107990;1252;22551;-80
2023/08/04 00:45:00;;;;;;;8.20;3.80;;;;;;;;;;107967;1254;25359;-80
2023/08/04 00:47:26;;;;;;;8.10;4.10;;;;;;;;;;107964;1252;25392;-80
2023/08/04 00:49:53;;;;;;;7.60;4.00;;;;;;;;;;108003;1253;23669;-80
2023/08/04 00:52:19;;;;;;;5.40;3.20;;;;;;;;;;107979;1253;22571;-80
2023/08/04 00:54:46;;;;;;;5.40;3.20;;;;;;;;;;107990;1254;24489;-80
2023/08/04 00:57:12;;;;;;;7.40;3.50;;;;;;;;;;107970;1253;24095;-80
2023/08/04 00:59:38;;;;;;;6.00;3.10;;;;;;;;;;108026;1251;25435;-80
2023/08/04 01:02:04;;;;;;;6.50;3.80;;;;;;;;;;107974;1251;22704;-80
2023/08/04 01:04:31;;;;;;;11.60;3.80;;;;;;;;;;108089;1253;23291;-80
2023/08/04 01:07:01;;;;;;;7.40;2.70;;;;;;;;;;107957;1254;39466;-79
2023/08/04 01:09:31;;;;;;;7.10;3.00;;;;;;;;;;108835;1251;59329;-80
2023/08/04 01:12:06;;;;;;;6.40;3.20;;;;;;;;;;108028;1252;22572;-80
2023/08/04 01:14:32;;;;;;;7.20;2.80;;;;;;;;;;108072;1253;22632;-80
2023/08/04 01:17:03;;;;;;;6.00;2.80;;;;;;;;;;107915;1253;22606;-79
2023/08/04 01:19:30;;;;;;;6.80;2.50;;;;;;;;;;108032;1253;22639;-80
2023/08/04 01:21:56;;;;;;;4.20;2.80;;;;;;;;;;107971;1253;22619;-79
2023/08/04 01:24:23;;;;;;;4.70;3.30;;;;;;;;;;108033;1254;23111;-80
2023/08/04 01:26:49;;;;;;;6.60;2.90;;;;;;;;;;108019;1253;22595;-80
2023/08/04 01:29:15;;;;;;;6.00;3.30;;;;;;;;;;107998;1251;24233;-80
2023/08/04 01:31:42;;;;;;;5.50;2.70;;;;;;;;;;108027;1251;22525;-80
2023/08/04 01:34:08;;;;;;;10.20;3.40;;;;;;;;;;107982;1255;23239;-79
2023/08/04 01:36:34;;;;;;;8.20;4.10;;;;;;;;;;107968;1256;23356;-79
2023/08/04 01:39:01;;;;;;;5.70;3.40;;;;;;;;;;108900;1254;22572;-80
2023/08/04 01:41:27;;;;;;;7.00;3.30;;;;;;;;;;108019;1255;22536;-79
2023/08/04 01:43:53;;;;;;;7.80;3.90;;;;;;;;;;107949;1251;22699;-80
2023/08/04 01:46:20;;;;;;;7.10;3.40;;;;;;;;;;108011;1251;22522;-80
2023/08/04 01:48:46;;;;;;;6.30;2.90;;;;;;;;;;107998;1253;22549;-80
2023/08/04 01:51:12;;;;;;;5.10;3.30;;;;;;;;;;108007;1251;22518;-80
2023/08/04 01:53:39;;;;;;;10.80;4.30;;;;;;;;;;108001;1253;22598;-80
2023/08/04 01:56:05;;;;;;;6.70;3.90;;;;;;;;;;107969;1251;22827;-80
2023/08/04 01:58:31;;;;;;;6.50;4.10;;;;;;;;;;107993;1254;22574;-80
2023/08/04 02:00:58;;;;;;;7.50;4.00;;;;;;;;;;107955;1251;24243;-80
2023/08/04 02:03:24;;;;;;;7.20;4.40;;;;;;;;;;107957;1251;22662;-80
2023/08/04 02:05:50;;;;;;;13.50;8.00;;;;;;;;;;108047;1253;24199;-80
2023/08/04 02:08:17;;;;;;;18.70;8.80;;;;;;;;;;108006;1253;22571;-80
2023/08/04 02:10:49;;;;;;;11.60;6.30;;;;;;;;;;107515;1255;22541;-80
2023/08/04 02:13:16;;;;;;;12.00;6.10;;;;;;;;;;107510;1251;23416;-80
2023/08/04 02:15:42;;;;;;;8.10;4.00;;;;;;;;;;107492;1253;22731;-80
2023/08/04 02:18:08;;;;;;;9.20;4.50;;;;;;;;;;107528;1254;25508;-79
2023/08/04 02:20:35;;;;;;;8.30;4.00;;;;;;;;;;107524;1251;22666;-79
2023/08/04 02:23:01;;;;;;;11.80;4.60;;;;;;;;;;107516;1251;24372;-79
2023/08/04 02:25:27;;;;;;;7.10;4.50;;;;;;;;;;107463;1253;22596;-80
2023/08/04 02:27:54;;;;;;;8.00;4.40;;;;;;;;;;107970;1254;22578;-80
2023/08/04 02:30:20;;;;;;;8.40;3.80;;;;;;;;;;107984;1251;22568;-80
2023/08/04 02:32:47;;;;;;;6.10;3.70;;;;;;;;;;107987;1251;24244;-80
2023/08/04 02:35:13;;;;;;;8.10;3.70;;;;;;;;;;107997;1252;23203;-80
2023/08/04 02:37:39;;;;;;;13.80;2.90;;;;;;;;;;108036;1251;22610;-80
2023/08/04 02:40:06;;;;;;;4.40;3.00;;;;;;;;;;108008;1254;22570;-80
2023/08/04 02:42:32;;;;;;;8.60;3.80;;;;;;;;;;108004;1256;22533;-79
2023/08/04 02:44:58;;;;;;;6.10;3.70;;;;;;;;;;108020;1255;25395;-80
2023/08/04 02:47:25;;;;;;;6.50;3.90;;;;;;;;;;108099;1251;22569;-80
2023/08/04 02:49:51;;;;;;;5.00;3.90;;;;;;;;;;107985;1251;22527;-80
2023/08/04 02:52:17;;;;;;;5.40;3.30;;;;;;;;;;107988;1255;22558;-80
2023/08/04 02:54:44;;;;;;;6.40;2.90;;;;;;;;;;107998;1253;22551;-81
2023/08/04 02:57:10;;;;;;;5.60;3.60;;;;;;;;;;107964;1251;22637;-80
2023/08/04 02:59:36;;;;;;;7.10;3.30;;;;;;;;;;107979;1251;25271;-80
2023/08/04 03:02:03;;;;;;;10.60;3.50;;;;;;;;;;107960;1253;23235;-81
2023/08/04 03:04:30;;;;;;;5.00;2.70;;;;;;;;;;107915;1256;22643;-80
2023/08/04 03:06:56;;;;;;;6.40;3.50;;;;;;;;;;107912;1251;22722;-80
2023/08/04 03:09:22;;;;;;;11.20;4.20;;;;;;;;;;108006;1251;23179;-80
2023/08/04 03:11:49;;;;;;;5.90;3.60;;;;;;;;;;107971;1252;22525;-80
2023/08/04 03:14:15;;;;;;;9.70;4.50;;;;;;;;;;107934;1252;25093;-80
2023/08/04 03:16:41;;;;;;;6.70;4.00;;;;;;;;;;107958;1251;24120;-80
2023/08/04 03:19:07;;;;;;;6.70;3.60;;;;;;;;;;109881;1251;23058;-80
2023/08/04 03:21:34;;;;;;;6.00;3.90;;;;;;;;;;108927;1253;22611;-80
2023/08/04 03:24:00;;;;;;;13.90;8.00;;;;;;;;;;107855;1250;61929;-80
2023/08/04 03:26:26;;;;;;;15.80;10.60;;;;;;;;;;107925;1254;24336;-80
2023/08/04 03:28:53;;;;;;;14.20;9.80;;;;;;;;;;107721;1255;61878;-80
2023/08/04 03:31:19;;;;;;;23.10;15.50;;;;;;;;;;107193;1256;61955;-80
2023/08/04 03:33:46;;;;;;;17.20;10.60;;;;;;;;;;107140;1255;62607;-80
2023/08/04 03:36:12;;;;;;;14.80;8.90;;;;;;;;;;107598;1255;64164;-80
2023/08/04 03:38:39;;;;;;;16.50;9.40;;;;;;;;;;107969;1255;25265;-80
2023/08/04 03:41:05;;;;;;;11.90;6.20;;;;;;;;;;107940;1254;22690;-80
2023/08/04 03:43:31;;;;;;;13.90;9.40;;;;;;;;;;108740;1250;22522;-80
2023/08/04 03:45:58;;;;;;;13.00;9.00;;;;;;;;;;107897;1251;22537;-80
2023/08/04 03:48:24;;;;;;;9.00;6.10;;;;;;;;;;107956;1256;22543;-80
2023/08/04 03:50:50;;;;;;;8.60;5.80;;;;;;;;;;107993;1251;24218;-80
2023/08/04 03:53:17;;;;;;;5.70;3.90;;;;;;;;;;107972;1251;22538;-80
2023/08/04 03:55:43;;;;;;;6.40;3.70;;;;;;;;;;107999;1254;23198;-80
2023/08/04 03:58:09;;;;;;;7.30;4.10;;;;;;;;;;107983;1254;22568;-80
2023/08/04 04:00:36;;;;;;;6.20;3.70;;;;;;;;;;107915;1252;22563;-80
2023/08/04 04:03:02;;;;;;;5.00;3.40;;;;;;;;;;107929;1251;22599;-80
2023/08/04 04:05:29;;;;;;;4.80;2.90;;;;;;;;;;107966;1251;22538;-80
2023/08/04 04:07:55;;;;;;;6.10;3.20;;;;;;;;;;107942;1254;22532;-80
2023/08/04 04:10:21;;;;;;;4.30;2.90;;;;;;;;;;107936;1251;22542;-80
2023/08/04 04:12:48;;;;;;;9.20;4.10;;;;;;;;;;107939;1254;22591;-80
2023/08/04 04:15:14;;;;;;;4.80;3.10;;;;;;;;;;107928;1251;25377;-80
2023/08/04 04:17:40;;;;;;;8.50;3.80;;;;;;;;;;108044;1252;22584;-80
2023/08/04 04:20:07;;;;;;;5.70;3.70;;;;;;;;;;107979;1251;22928;-81
2023/08/04 04:22:34;;;;;;;4.10;2.80;;;;;;;;;;107966;1252;22587;-80
2023/08/04 04:25:00;;;;;;;6.40;3.60;;;;;;;;;;108138;1254;22538;-80
2023/08/04 04:27:27;;;;;;;6.30;3.30;;;;;;;;;;107911;1251;23003;-80
2023/08/04 04:29:53;;;;;;;5.30;2.90;;;;;;;;;;107963;1256;23202;-80
2023/08/04 04:32:20;;;;;;;5.10;3.10;;;;;;;;;;107959;1251;24904;-80
2023/08/04 04:34:46;;;;;;;6.10;3.10;;;;;;;;;;108057;1251;26839;-81
2023/08/04 04:37:12;;;;;;;6.50;3.30;;;;;;;;;;107947;1251;22585;-80
2023/08/04 04:39:39;;;;;;;5.90;3.90;;;;;;;;;;108112;1251;22530;-80
2023/08/04 04:42:05;;;;;;;5.50;3.30;;;;;;;;;;108000;1251;24223;-80
2023/08/04 04:44:32;;;;;;;6.10;3.70;;;;;;;;;;107945;1254;22616;-80
2023/08/04 04:46:58;;;;;;;5.70;3.30;;;;;;;;;;107932;1250;23295;-80
2023/08/04 04:49:24;;;;;;;12.90;4.80;;;;;;;;;;108004;1254;25279;-80
2023/08/04 04:51:51;;;;;;;6.70;3.20;;;;;;;;;;107974;1254;22561;-80
2023/08/04 04:54:17;;;;;;;5.30;3.00;;;;;;;;;;107939;1251;24374;-80
2023/08/04 04:56:45;;;;;;;5.30;3.40;;;;;;;;;;107978;1254;24279;-80
2023/08/04 04:59:11;;;;;;;8.90;3.40;;;;;;;;;;107914;1251;22523;-80
2023/08/04 05:01:38;;;;;;;5.20;3.10;;;;;;;;;;107966;1251;22571;-80
2023/08/04 05:04:04;;;;;;;5.20;2.60;;;;;;;;;;108229;1253;22543;-81
2023/08/04 05:06:30;;;;;;;6.90;3.20;;;;;;;;;;108038;1251;22551;-80
2023/08/04 05:08:57;;;;;;;6.20;2.50;;;;;;;;;;108026;1250;25387;-80
2023/08/04 05:11:23;;;;;;;6.50;2.90;;;;;;;;;;107994;1251;25471;-80
2023/08/04 05:13:49;;;;;;;5.50;2.80;;;;;;;;;;108022;1253;22565;-80
2023/08/04 05:16:16;;;;;;;10.40;2.70;;;;;;;;;;107982;1250;23129;-80
2023/08/04 05:18:42;;;;;;;4.40;2.90;;;;;;;;;;108046;1251;22523;-80
2023/08/04 05:21:09;;;;;;;5.10;2.80;;;;;;;;;;108021;1251;24367;-80
2023/08/04 05:23:35;;;;;;;4.40;3.40;;;;;;;;;;108059;1251;22576;-80
2023/08/04 05:26:01;;;;;;;5.70;2.60;;;;;;;;;;108030;1251;22511;-80
2023/08/04 05:28:30;;;;;;;5.20;2.60;;;;;;;;;;108019;1251;22528;-80
2023/08/04 05:31:01;;;;;;;5.80;3.50;;;;;;;;;;108037;1251;23274;-80
2023/08/04 05:33:27;;;;;;;5.80;3.10;;;;;;;;;;107978;1250;23036;-80
2023/08/04 05:35:54;;;;;;;15.80;3.30;;;;;;;;;;108013;1251;22998;-80
2023/08/04 05:38:20;;;;;;;4.70;3.00;;;;;;;;;;108030;1253;25743;-80
2023/08/04 05:40:46;;;;;;;5.80;3.70;;;;;;;;;;108021;1250;22602;-80
2023/08/04 05:43:13;;;;;;;4.60;3.30;;;;;;;;;;108007;1253;22576;-80
2023/08/04 05:45:40;;;;;;;5.80;3.30;;;;;;;;;;108017;1251;25457;-80
2023/08/04 05:48:07;;;;;;;6.30;3.40;;;;;;;;;;107979;1251;24195;-80
2023/08/04 05:50:33;;;;;;;7.10;3.80;;;;;;;;;;107988;1251;22954;-80
2023/08/04 05:53:00;;;;;;;5.70;3.30;;;;;;;;;;108044;1249;25429;-81
2023/08/04 05:55:26;;;;;;;4.30;3.10;;;;;;;;;;108004;1251;23231;-81
2023/08/04 05:57:53;;;;;;;5.00;2.70;;;;;;;;;;107946;1250;22530;-81
2023/08/04 06:00:20;;;;;;;6.80;3.30;;;;;;;;;;108046;1251;22569;-81
2023/08/04 06:02:46;;;;;;;6.40;3.40;;;;;;;;;;108019;1253;25332;-79
2023/08/04 06:05:13;;;;;;;11.20;4.40;;;;;;;;;;107517;1251;23271;-81
2023/08/04 06:07:39;;;;;;;7.80;5.00;;;;;;;;;;107977;1253;22544;-81
2023/08/04 06:10:06;;;;;;;5.70;3.90;;;;;;;;;;107943;1251;24221;-81
2023/08/04 06:12:32;;;;;;;6.10;3.70;;;;;;;;;;107954;1251;24237;-80
2023/08/04 06:14:59;;;;;;;7.00;3.90;;;;;;;;;;108035;1251;24200;-81
2023/08/04 06:17:25;;;;;;;7.20;3.80;;;;;;;;;;108188;1251;24401;-80
2023/08/04 06:19:51;;;;;;;7.50;4.30;;;;;;;;;;108293;1251;24233;-81
2023/08/04 06:22:18;;;;;;;10.40;4.50;;;;;;;;;;107957;1251;22520;-81
2023/08/04 06:24:44;;;;;;;8.50;4.00;;;;;;;;;;108060;1250;24192;-80
2023/08/04 06:27:10;;;;;;;5.50;3.50;;;;;;;;;;108095;1251;23020;-80
2023/08/04 06:29:37;;;;;;;6.50;4.00;;;;;;;;;;108046;1253;22521;-81
2023/08/04 06:32:04;;;;;;;4.60;2.60;;;;;;;;;;108030;1253;25265;-80
2023/08/04 06:34:30;;;;;;;9.00;4.30;;;;;;;;;;108093;1250;22769;-80
2023/08/04 06:36:57;;;;;;;6.60;3.90;;;;;;;;;;108048;1251;25279;-80
2023/08/04 06:39:24;;;;;;;8.00;3.50;;;;;;;;;;108099;1251;25378;-79
2023/08/04 06:41:50;;;;;;;6.80;3.30;;;;;;;;;;107899;1251;22601;-79
2023/08/04 06:44:17;;;;;;;11.80;4.40;;;;;;;;;;108473;1251;22589;-79
2023/08/04 06:46:43;;;;;;;6.10;3.40;;;;;;;;;;108449;1250;22577;-79
2023/08/04 06:49:09;;;;;;;6.00;3.60;;;;;;;;;;107993;1251;22515;-79
2023/08/04 06:51:36;;;;;;;7.70;3.90;;;;;;;;;;108036;1250;22544;-79
2023/08/04 06:54:02;;;;;;;8.80;4.90;;;;;;;;;;107916;1251;22530;-79
2023/08/04 06:56:28;;;;;;;9.00;5.50;;;;;;;;;;107802;1250;23396;-79
2023/08/04 06:58:55;;;;;;;6.60;3.90;;;;;;;;;;107688;1249;25486;-80
2023/08/04 07:01:21;;;;;;;8.50;5.10;;;;;;;;;;108033;1251;24347;-81
2023/08/04 07:03:47;;;;;;;7.50;4.10;;;;;;;;;;108088;1251;22566;-80
2023/08/04 07:06:14;;;;;;;9.80;3.60;;;;;;;;;;108036;1249;25468;-80
2023/08/04 07:08:40;;;;;;;6.00;3.50;;;;;;;;;;108113;1251;23289;-80
2023/08/04 07:11:14;;;;;;;4.90;3.20;;;;;;;;;;108086;1251;172005;-80
2023/08/04 07:13:41;;;;;;;5.90;4.00;;;;;;;;;;108399;1251;25378;-80
2023/08/04 07:16:07;;;;;;;6.40;4.70;;;;;;;;;;108373;1251;25381;-81
2023/08/04 07:18:34;;;;;;;8.30;3.30;;;;;;;;;;108513;1249;22525;-82
2023/08/04 07:21:11;;;;;;;6.70;3.50;;;;;;;;;;108348;1253;23237;-81
2023/08/04 07:23:38;;;;;;;5.30;3.20;;;;;;;;;;108393;1249;22695;-81
2023/08/04 07:26:04;;;;;;;6.00;2.80;;;;;;;;;;108272;1250;25963;-81
2023/08/04 07:28:31;;;;;;;6.50;3.20;;;;;;;;;;108032;1251;23142;-81
2023/08/04 07:31:01;;;;;;;6.90;3.50;;;;;;;;;;107981;1253;22546;-81
2023/08/04 07:33:27;;;;;;;9.40;4.50;;;;;;;;;;107972;1249;25394;-80
2023/08/04 07:35:54;;;;;;;3.60;2.50;;;;;;;;;;108081;1249;25215;-81
2023/08/04 07:38:21;;;;;;;5.60;2.90;;;;;;;;;;107995;1250;26623;-80
2023/08/04 07:40:48;;;;;;;4.80;2.90;;;;;;;;;;108061;1251;23167;-80
2023/08/04 07:43:14;;;;;;;4.40;2.80;;;;;;;;;;108203;1249;24187;-80
2023/08/04 07:45:40;;;;;;;6.10;3.10;;;;;;;;;;108077;1251;23199;-80
2023/08/04 07:48:07;;;;;;;5.90;3.30;;;;;;;;;;108097;1250;22542;-80
2023/08/04 07:50:36;;;;;;;6.30;3.20;;;;;;;;;;108228;1249;22627;-80
2023/08/04 07:53:03;;;;;;;6.80;2.40;;;;;;;;;;108312;1253;22555;-80
2023/08/04 07:55:30;;;;;;;4.40;2.50;;;;;;;;;;108461;1249;22518;-80
2023/08/04 07:57:56;;;;;;;5.30;3.40;;;;;;;;;;108441;1250;25364;-81
2023/08/04 08:00:23;;;;;;;6.80;4.20;;;;;;;;;;108187;1251;26417;-80
2023/08/04 08:02:49;;;;;;;7.20;3.60;;;;;;;;;;108277;1250;22549;-80
2023/08/04 08:05:16;;;;;;;8.10;3.60;;;;;;;;;;108313;1253;22524;-80
2023/08/04 08:07:43;;;;;;;9.70;5.50;;;;;;;;;;108123;1249;24239;-80
2023/08/04 08:10:09;;;;;;;6.00;3.90;;;;;;;;;;109922;1250;22568;-80
2023/08/04 08:12:36;;;;;;;5.80;3.30;;;;;;;;;;108425;1250;22557;-80
2023/08/04 08:15:05;;;;;;;5.90;2.80;;;;;;;;;;109347;1249;22452;-80
2023/08/04 08:17:31;;;;;;;6.80;2.90;;;;;;;;;;110513;1250;25384;-80
2023/08/04 08:19:58;;;;;;;7.00;2.50;;;;;;;;;;108277;1250;22555;-80
2023/08/04 08:22:24;;;;;;;8.50;4.10;;;;;;;;;;108651;1250;23452;-80
2023/08/04 08:24:54;;;;;;;8.20;4.40;;;;;;;;;;108620;1251;24362;-80
2023/08/04 08:27:20;;;;;;;9.30;5.60;;;;;;;;;;108477;1249;24234;-80
2023/08/04 08:29:47;;;;;;;6.90;3.70;;;;;;;;;;108347;1251;25400;-80
2023/08/04 08:32:14;;;;;;;4.80;3.40;;;;;;;;;;108299;1251;22571;-80
2023/08/04 08:34:40;;;;;;;9.60;6.00;;;;;;;;;;108301;1250;22579;-80
2023/08/04 08:37:07;;;;;;;12.30;8.20;;;;;;;;;;108049;1251;22647;-80
2023/08/04 08:39:33;;;;;;;4.60;3.40;;;;;;;;;;107999;1250;22654;-80
2023/08/04 08:42:00;;;;;;;6.90;2.80;;;;;;;;;;108035;1253;22568;-80
2023/08/04 08:44:26;;;;;;;9.60;4.60;;;;;;;;;;108111;1249;22654;-80
2023/08/04 08:46:52;;;;;;;4.70;3.70;;;;;;;;;;108115;1250;24220;-80
2023/08/04 08:49:38;;;;;;;4.60;3.20;;;;;;;;;;107997;1249;22536;-80
2023/08/04 08:52:06;;;;;;;5.50;3.90;;;;;;;;;;108038;1250;22547;-80
2023/08/04 08:54:33;;;;;;;12.00;5.30;;;;;;;;;;108026;1250;22528;-80
2023/08/04 08:56:59;;;;;;;16.70;10.20;;;;;;;;;;107920;1251;25410;-80
2023/08/04 08:59:26;;;;;;;11.60;7.00;;;;;;;;;;108205;1249;56296;-80
2023/08/04 09:01:52;;;;;;;22.30;18.20;;;;;;;;;;108122;1254;46513;-80
2023/08/04 09:04:19;;;;;;;14.40;10.80;;;;;;;;;;107515;1249;62139;-80
2023/08/04 09:06:46;;;;;;;7.60;5.90;;;;;;;;;;107513;1251;61595;-80
2023/08/04 09:09:12;;;;;;;7.00;4.50;;;;;;;;;;108507;1251;59805;-80
2023/08/04 09:11:38;;;;;;;11.80;6.00;;;;;;;;;;107558;1250;61965;-80
2023/08/04 09:14:05;;;;;;;8.40;4.40;;;;;;;;;;107325;1250;60294;-80
2023/08/04 09:16:32;;;;;;;6.70;4.20;;;;;;;;;;107171;1249;61047;-80
2023/08/04 09:19:04;;;;;;;5.70;3.50;;;;;;;;;;107929;1250;61368;-80
2023/08/04 09:21:30;;;;;;;5.10;3.10;;;;;;;;;;107230;1253;60045;-81
2023/08/04 09:23:57;;;;;;;5.70;2.60;;;;;;;;;;107677;1253;62003;-80
2023/08/04 09:26:23;;;;;;;4.60;3.30;;;;;;;;;;107463;1249;61992;-80
2023/08/04 09:29:01;;;;;;;7.50;2.70;;;;;;;;;;107210;1250;62030;-80
2023/08/04 09:31:28;;;;;;;5.80;3.50;;;;;;;;;;107327;1250;62072;-80
2023/08/04 09:33:55;;;;;;;8.30;2.80;;;;;;;;;;107253;1249;62358;-80
2023/08/04 09:36:21;;;;;;;4.20;3.10;;;;;;;;;;107292;1249;62210;-80
2023/08/04 09:38:48;;;;;;;5.60;3.10;;;;;;;;;;107346;1249;62012;-80
2023/08/04 09:41:15;;;;;;;7.20;3.50;;;;;;;;;;107246;1249;62053;-80
2023/08/04 09:43:44;;;;;;;5.90;3.10;;;;;;;;;;107172;1251;61969;-80
2023/08/04 09:46:10;;;;;;;8.00;3.30;;;;;;;;;;107133;1249;62177;-80
2023/08/04 09:48:37;;;;;;;6.30;2.60;;;;;;;;;;107174;1249;62135;-80
2023/08/04 09:51:13;;;;;;;5.60;2.60;;;;;;;;;;107245;1252;62065;-80
2023/08/04 09:53:43;;;;;;;6.50;3.10;;;;;;;;;;107310;1249;62030;-81
2023/08/04 09:56:13;;;;;;;4.30;2.30;;;;;;;;;;107317;1249;61977;-80
2023/08/04 09:58:40;;;;;;;4.50;3.20;;;;;;;;;;107265;1249;62069;-80
2023/08/04 10:01:06;;;;;;;4.20;2.80;;;;;;;;;;107372;1254;62019;-80
2023/08/04 10:03:33;;;;;;;4.30;2.90;;;;;;;;;;107138;1249;61955;-81
2023/08/04 10:06:00;;;;;;;4.70;3.00;;;;;;;;;;107140;1250;61948;-80
2023/08/04 10:08:29;;;;;;;3.90;2.90;;;;;;;;;;107699;1251;62010;-80
2023/08/04 10:10:56;;;;;;;5.70;3.10;;;;;;;;;;107218;1250;62100;-80
2023/08/04 10:13:23;;;;;;;5.30;3.30;;;;;;;;;;107279;1249;62503;-80
2023/08/04 10:15:49;;;;;;;4.40;3.00;;;;;;;;;;107372;1249;62219;-80
2023/08/04 10:18:16;;;;;;;5.80;3.20;;;;;;;;;;107269;1249;62171;-80
2023/08/04 10:20:42;;;;;;;28.10;4.70;;;;;;;;;;107269;1250;62201;-80
2023/08/04 10:23:10;;;;;;;5.10;3.20;;;;;;;;;;107201;1249;62101;-80
2023/08/04 10:25:37;;;;;;;4.90;3.60;;;;;;;;;;107251;1250;62072;-80
2023/08/04 10:28:03;;;;;;;6.70;3.30;;;;;;;;;;107248;1250;62114;-80
2023/08/04 10:30:29;;;;;;;4.00;2.70;;;;;;;;;;107194;1251;62153;-80
2023/08/04 10:33:07;;;;;;;5.90;2.80;;;;;;;;;;107384;1250;62185;-81
2023/08/04 10:35:34;;;;;;;3.90;2.50;;;;;;;;;;107077;1253;62032;-80
2023/08/04 10:38:02;;;;;;;3.20;2.30;;;;;;;;;;106969;1253;62029;-80
2023/08/04 10:40:30;;;;;;;3.70;2.50;;;;;;;;;;106871;1254;61923;-80
2023/08/04 10:42:57;;;;;;;3.90;2.60;;;;;;;;;;106892;1249;62028;-80
2023/08/04 10:45:23;;;;;;;5.40;3.40;;;;;;;;;;106898;1250;62054;-80
2023/08/04 10:47:53;;;;;;;4.20;2.40;;;;;;;;;;106894;1249;61953;-80
2023/08/04 10:50:20;;;;;;;5.00;2.80;;;;;;;;;;106930;1249;62921;-80
2023/08/04 10:52:47;;;;;;;4.70;2.80;;;;;;;;;;106963;1253;62036;-80
2023/08/04 10:55:13;;;;;;;3.70;2.50;;;;;;;;;;106887;1249;62550;-80
2023/08/04 10:57:40;;;;;;;4.80;2.10;;;;;;;;;;107016;1250;62190;-80
2023/08/04 11:00:07;;;;;;;3.40;2.30;;;;;;;;;;106989;1252;62070;-80
2023/08/04 11:02:34;;;;;;;3.90;2.40;;;;;;;;;;106910;1250;62047;-80
2023/08/04 11:05:03;;;;;;;3.70;2.40;;;;;;;;;;106962;1250;62137;-80
2023/08/04 11:07:29;;;;;;;4.50;2.30;;;;;;;;;;107200;1253;61907;-80
2023/08/04 11:09:56;;;;;;;4.60;2.20;;;;;;;;;;106958;1250;61981;-80
2023/08/04 11:12:22;;;;;;;3.40;2.10;;;;;;;;;;106923;1253;62124;-80
2023/08/04 11:14:51;;;;;;;4.90;3.20;;;;;;;;;;106966;1250;62058;-81
2023/08/04 11:17:18;;;;;;;6.30;2.90;;;;;;;;;;106941;1249;62096;-81
2023/08/04 11:19:46;;;;;;;3.90;2.10;;;;;;;;;;106908;1254;60694;-81
2023/08/04 11:22:13;;;;;;;2.30;1.30;;;;;;;;;;107004;1250;62080;-80
2023/08/04 11:24:40;;;;;;;2.20;1.70;;;;;;;;;;106960;1250;62261;-80
2023/08/04 11:27:06;;;;;;;3.60;2.20;;;;;;;;;;106875;1253;62534;-80
2023/08/04 11:29:33;;;;;;;3.20;2.10;;;;;;;;;;106953;1253;62989;-80
2023/08/04 11:32:00;;;;;;;6.90;1.70;;;;;;;;;;107233;1249;61976;-80
2023/08/04 11:34:27;;;;;;;3.50;1.50;;;;;;;;;;107307;1254;62034;-80
2023/08/04 11:36:53;;;;;;;4.80;1.80;;;;;;;;;;107282;1250;62024;-80
2023/08/04 11:39:20;;;;;;;7.60;2.60;;;;;;;;;;107239;1250;62145;-80
2023/08/04 11:41:47;;;;;;;4.60;2.40;;;;;;;;;;107004;1250;62061;-80
2023/08/04 11:44:16;;;;;;;2.70;1.60;;;;;;;;;;106918;1253;62125;-80
2023/08/04 11:46:42;;;;;;;2.70;1.90;;;;;;;;;;106887;1250;62134;-80
2023/08/04 11:49:09;;;;;;;11.50;1.80;;;;;;;;;;106991;1250;62079;-80
2023/08/04 11:51:35;;;;;;;2.90;1.50;;;;;;;;;;106947;1250;62097;-80
2023/08/04 11:54:01;;;;;;;6.20;1.30;;;;;;;;;;106955;1251;62032;-80
2023/08/04 11:56:37;;;;;;;4.90;2.10;;;;;;;;;;106907;1254;62039;-80
2023/08/04 11:59:10;;;;;;;6.20;2.10;;;;;;;;;;106988;1253;62114;-80
2023/08/04 12:01:37;;;;;;;3.80;2.30;;;;;;;;;;107004;1249;62166;-80
2023/08/04 12:04:18;;;;;;;8.00;3.00;;;;;;;;;;107243;1253;62583;-80
2023/08/04 12:06:44;;;;;;;4.50;1.80;;;;;;;;;;107264;1253;61557;-81
2023/08/04 12:09:10;;;;;;;3.60;1.70;;;;;;;;;;107153;1254;62149;-81
2023/08/04 12:11:45;;;;;;;1.90;1.20;;;;;;;;;;107217;1249;61951;-81
2023/08/04 12:14:12;;;;;;;7.70;1.40;;;;;;;;;;107363;1250;62022;-82
2023/08/04 12:16:49;;;;;;;2.10;1.30;;;;;;;;;;107015;1255;62035;-81
2023/08/04 12:19:15;;;;;;;48.40;6.20;;;;;;;;;;107014;1251;62080;-81
2023/08/04 12:21:41;;;;;;;16.50;3.40;;;;;;;;;;106971;1250;62201;-81
2023/08/04 12:24:08;;;;;;;7.40;2.70;;;;;;;;;;107134;1250;62161;-81
2023/08/04 12:26:34;;;;;;;228.20;17.50;;;;;;;;;;107010;1250;62125;-81
2023/08/04 12:29:01;;;;;;;14.70;2.80;;;;;;;;;;107060;1250;62038;-80
2023/08/04 12:31:27;;;;;;;7.80;2.80;;;;;;;;;;107021;1253;62085;-81
2023/08/04 12:33:53;;;;;;;4.90;1.70;;;;;;;;;;106911;1249;63264;-81
2023/08/04 12:36:20;;;;;;;5.20;2.20;;;;;;;;;;106942;1251;62235;-81
2023/08/04 12:38:46;;;;;;;6.60;2.60;;;;;;;;;;107046;1250;62038;-81
2023/08/04 12:41:13;;;;;;;4.80;2.50;;;;;;;;;;106946;1250;62099;-81
2023/08/04 12:43:39;;;;;;;3.90;2.70;;;;;;;;;;106944;1249;62566;-81
2023/08/04 12:46:06;;;;;;;14.80;3.40;;;;;;;;;;106959;1253;62150;-81
2023/08/04 12:48:32;;;;;;;8.10;4.00;;;;;;;;;;106890;1250;62356;-81
2023/08/04 12:50:59;;;;;;;11.60;5.50;;;;;;;;;;107096;1250;62166;-81
2023/08/04 12:53:25;;;;;;;8.20;4.00;;;;;;;;;;106907;1250;62153;-81
2023/08/04 12:55:51;;;;;;;8.10;2.70;;;;;;;;;;107063;1253;62140;-81
2023/08/04 12:58:18;;;;;;;4.50;2.50;;;;;;;;;;106967;1254;62074;-81
2023/08/04 13:00:44;;;;;;;10.60;4.40;;;;;;;;;;107063;1250;63218;-81
2023/08/04 13:03:11;;;;;;;8.90;4.30;;;;;;;;;;106975;1249;62004;-81
2023/08/04 13:05:40;;;;;;;7.20;3.20;;;;;;;;;;106868;1250;62151;-81
2023/08/04 13:08:06;;;;;;;6.10;2.70;;;;;;;;;;107105;1253;62029;-80
2023/08/04 13:10:34;;;;;;;5.90;2.70;;;;;;;;;;107072;1250;62124;-81
2023/08/04 13:13:00;;;;;;;4.00;2.00;;;;;;;;;;107074;1251;61971;-80
2023/08/04 13:15:27;;;;;;;3.50;2.20;;;;;;;;;;107373;1254;62023;-81
2023/08/04 13:17:53;;;;;;;4.50;1.50;;;;;;;;;;107647;1253;61908;-81
2023/08/04 13:20:20;;;;;;;3.50;2.00;;;;;;;;;;107468;1250;62004;-81
2023/08/04 13:22:46;;;;;;;6.30;2.00;;;;;;;;;;107508;1250;61949;-81
2023/08/04 13:25:13;;;;;;;8.70;2.10;;;;;;;;;;107064;1249;62134;-81
2023/08/04 13:27:40;;;;;;;6.70;2.50;;;;;;;;;;107030;1249;62023;-81
2023/08/04 13:30:08;;;;;;;7.40;2.90;;;;;;;;;;107204;1253;62036;-80
2023/08/04 13:32:34;;;;;;;3.00;2.00;;;;;;;;;;107313;1253;61936;-81
2023/08/04 13:35:00;;;;;;;3.40;2.10;;;;;;;;;;107048;1254;62045;-81
2023/08/04 13:37:27;;;;;;;2.70;1.70;;;;;;;;;;106978;1249;61071;-81
2023/08/04 13:39:54;;;;;;;2.90;1.70;;;;;;;;;;107039;1250;62091;-81
2023/08/04 13:42:20;;;;;;;3.90;1.90;;;;;;;;;;106955;1249;62081;-81
2023/08/04 13:44:47;;;;;;;4.00;1.90;;;;;;;;;;106919;1254;62145;-81
2023/08/04 13:47:13;;;;;;;2.00;1.60;;;;;;;;;;107083;1249;61990;-81
2023/08/04 13:49:39;;;;;;;3.50;1.70;;;;;;;;;;106984;1249;61976;-82
2023/08/04 13:52:06;;;;;;;3.60;1.90;;;;;;;;;;106965;1250;62028;-81
2023/08/04 13:54:32;;;;;;;4.00;1.90;;;;;;;;;;107209;1253;62134;-81
2023/08/04 13:56:59;;;;;;;3.90;2.10;;;;;;;;;;107689;1251;62064;-81
2023/08/04 13:59:25;;;;;;;2.60;1.60;;;;;;;;;;107342;1250;61902;-81
2023/08/04 14:01:52;;;;;;;3.40;2.60;;;;;;;;;;107321;1249;62029;-81
2023/08/04 14:04:18;;;;;;;4.30;2.20;;;;;;;;;;107136;1252;62207;-82
2023/08/04 14:06:44;;;;;;;3.30;2.10;;;;;;;;;;107143;1249;62207;-81
2023/08/04 14:09:11;;;;;;;7.90;5.60;;;;;;;;;;107248;1249;62137;-81
2023/08/04 14:11:37;;;;;;;2.50;1.80;;;;;;;;;;106996;1249;62127;-81
2023/08/04 14:14:04;;;;;;;5.00;3.40;;;;;;;;;;107349;1254;62140;-81
2023/08/04 14:16:30;;;;;;;4.00;1.70;;;;;;;;;;107305;1249;62074;-81
2023/08/04 14:18:56;;;;;;;3.70;1.70;;;;;;;;;;107806;1253;62207;-82
2023/08/04 14:21:23;;;;;;;3.80;1.30;;;;;;;;;;107637;1249;62131;-81
2023/08/04 14:23:49;;;;;;;3.90;1.80;;;;;;;;;;107389;1249;62233;-81
2023/08/04 14:26:16;;;;;;;3.80;1.80;;;;;;;;;;107469;1250;62153;-81